Time;durP1;ratioP1;P1;durP2;ratioP2;P2;SDS_P1;SDS_P2;PMS_P1;PMS_P2;Temp;Humidity;BMP_temperature;BMP_pressure;BME280_temperature;BME280_humidity;BME280_pressure;Samples;Min_cycle;Max_cycle;Signal;HPM_P1;HPM_P2
2022/04/01 00:01:38;;;;;;;5.03;2.70;;;13.20;70.00;;;;;;5010294;28;20034;-78
2022/04/01 00:04:04;;;;;;;5.85;2.75;;;13.20;70.00;;;;;;5010514;28;20033;-76
2022/04/01 00:06:30;;;;;;;6.30;3.00;;;13.20;70.00;;;;;;4992497;28;20572;-75
2022/04/01 00:08:55;;;;;;;6.60;3.20;;;13.20;70.10;;;;;;5011162;28;20072;-77
2022/04/01 00:11:21;;;;;;;4.70;2.67;;;13.20;70.10;;;;;;5010572;28;20440;-75
2022/04/01 00:13:46;;;;;;;4.82;2.53;;;13.20;70.10;;;;;;5010481;28;20110;-75
2022/04/01 00:16:12;;;;;;;6.00;3.08;;;13.20;70.10;;;;;;5010376;28;20037;-74
2022/04/01 00:18:37;;;;;;;5.70;2.88;;;13.20;70.10;;;;;;5010231;28;20030;-75
2022/04/01 00:21:03;;;;;;;6.43;2.78;;;13.20;70.10;;;;;;5010186;28;20037;-76
2022/04/01 00:23:28;;;;;;;5.80;2.85;;;13.20;70.10;;;;;;5010428;28;20046;-76
2022/04/01 00:25:54;;;;;;;5.07;2.67;;;13.20;70.10;;;;;;4992697;28;20029;-76
2022/04/01 00:28:19;;;;;;;4.95;2.80;;;13.20;70.10;;;;;;4992482;28;20474;-78
2022/04/01 00:30:45;;;;;;;5.40;2.70;;;13.20;70.10;;;;;;5010418;28;20030;-76
2022/04/01 00:33:11;;;;;;;4.63;2.53;;;13.20;70.10;;;;;;4992478;28;20026;-75
2022/04/01 00:35:37;;;;;;;4.50;2.40;;;13.20;70.10;;;;;;5010349;28;20018;-75
2022/04/01 00:38:03;;;;;;;4.60;2.60;;;13.20;70.10;;;;;;5009773;28;20041;-78
2022/04/01 00:40:30;;;;;;;5.18;2.70;;;13.20;70.10;;;;;;5009961;28;20018;-76
2022/04/01 00:42:55;;;;;;;4.85;2.67;;;13.20;70.10;;;;;;5009778;28;20033;-74
2022/04/01 00:45:21;;;;;;;4.93;2.50;;;13.20;70.10;;;;;;5009996;28;20026;-75
2022/04/01 00:47:46;;;;;;;4.85;2.63;;;13.20;70.10;;;;;;5009277;28;20053;-80
2022/04/01 00:50:11;;;;;;;4.95;2.60;;;13.20;70.10;;;;;;4992850;28;20025;-76
2022/04/01 00:52:37;;;;;;;4.88;2.55;;;13.20;70.10;;;;;;5009632;28;20042;-77
2022/04/01 00:55:08;;;;;;;6.07;2.58;;;13.20;70.10;;;;;;5009970;28;20073;-75
2022/04/01 00:57:35;;;;;;;5.78;2.90;;;13.20;70.60;;;;;;5009616;28;20083;-76
2022/04/01 01:00:01;;;;;;;5.28;2.60;;;13.20;70.10;;;;;;5009550;28;20029;-79
2022/04/01 01:02:26;;;;;;;5.05;2.50;;;13.20;70.10;;;;;;5009728;28;20037;-75
2022/04/01 01:04:52;;;;;;;4.43;2.45;;;13.20;70.10;;;;;;5009609;28;20090;-75
2022/04/01 01:07:17;;;;;;;4.47;2.50;;;13.10;70.10;;;;;;5009125;28;20060;-76
2022/04/01 01:09:43;;;;;;;4.90;2.80;;;13.10;70.10;;;;;;4992032;28;20053;-75
2022/04/01 01:12:11;;;;;;;4.03;2.42;;;13.10;70.10;;;;;;5009445;28;20817;-75
2022/04/01 01:14:38;;;;;;;4.70;2.40;;;13.20;70.10;;;;;;5009314;28;20919;-75
2022/04/01 01:17:11;;;;;;;4.90;2.75;;;13.20;70.20;;;;;;5009209;28;20029;-77
2022/04/01 01:19:37;;;;;;;5.70;2.50;;;13.20;70.20;;;;;;5009351;28;20033;-79
2022/04/01 01:22:04;;;;;;;3.97;2.13;;;13.10;70.10;;;;;;4991757;28;20034;-75
2022/04/01 01:24:35;;;;;;;4.47;2.40;;;13.10;70.00;;;;;;5008906;28;20392;-75
2022/04/01 01:27:02;;;;;;;5.05;2.30;;;13.10;70.10;;;;;;5008760;28;20026;-74
2022/04/01 01:29:29;;;;;;;4.55;2.50;;;13.20;70.20;;;;;;5009231;28;20061;-75
2022/04/01 01:31:57;;;;;;;4.50;2.53;;;13.10;70.10;;;;;;4991343;28;20030;-75
2022/04/01 01:34:23;;;;;;;5.72;2.30;;;13.20;70.20;;;;;;4991444;28;20037;-77
2022/04/01 01:36:50;;;;;;;4.35;2.10;;;13.10;70.10;;;;;;5008789;28;20022;-76
2022/04/01 01:39:16;;;;;;;5.07;2.40;;;13.20;70.20;;;;;;4991183;28;20034;-79
2022/04/01 01:41:46;;;;;;;5.40;2.60;;;13.10;70.10;;;;;;5007701;28;20029;-79
2022/04/01 01:44:13;;;;;;;4.97;2.40;;;13.10;70.20;;;;;;4990546;28;20121;-75
2022/04/01 01:46:39;;;;;;;3.90;2.22;;;13.10;70.10;;;;;;4990553;28;20493;-79
2022/04/01 01:49:05;;;;;;;5.00;2.05;;;13.10;70.10;;;;;;5009078;28;20038;-75
2022/04/01 01:57:00;;;;;;;3.85;2.20;;;13.10;70.10;;;;;;5008166;28;20040;-77
2022/04/01 01:59:26;;;;;;;4.13;2.20;;;13.10;70.10;;;;;;5007816;28;20034;-75
2022/04/01 02:01:52;;;;;;;3.78;2.38;;;13.10;70.10;;;;;;4985969;28;20045;-77
2022/04/01 02:04:18;;;;;;;3.92;2.45;;;13.10;70.10;;;;;;5004486;28;20025;-75
2022/04/01 02:06:44;;;;;;;4.68;2.15;;;13.10;70.10;;;;;;5025419;28;20040;-76
2022/04/01 02:09:09;;;;;;;4.78;2.45;;;13.10;70.10;;;;;;5007489;28;20030;-74
2022/04/01 02:11:37;;;;;;;4.47;2.20;;;13.10;70.10;;;;;;5007695;28;20037;-74
2022/04/01 02:14:03;;;;;;;4.10;2.30;;;13.10;70.10;;;;;;4975723;28;20029;-75
2022/04/01 02:16:29;;;;;;;4.85;2.28;;;13.10;70.10;;;;;;5008214;28;20022;-77
2022/04/01 02:18:54;;;;;;;4.88;2.35;;;13.10;70.10;;;;;;5008728;28;20052;-74
2022/04/01 02:21:20;;;;;;;4.55;2.25;;;13.10;70.10;;;;;;4990942;28;20906;-75
2022/04/01 02:23:47;;;;;;;3.67;2.17;;;13.10;70.10;;;;;;5008581;28;20389;-77
2022/04/01 02:26:13;;;;;;;4.18;2.15;;;13.10;70.20;;;;;;4990530;28;20737;-78
2022/04/01 02:28:41;;;;;;;3.95;2.08;;;13.10;70.10;;;;;;5008494;28;20747;-75
2022/04/01 02:31:06;;;;;;;4.38;2.00;;;13.10;70.10;;;;;;5008468;28;20172;-75
2022/04/01 02:33:33;;;;;;;3.55;2.10;;;13.10;70.10;;;;;;4990704;28;20544;-74
2022/04/01 02:35:59;;;;;;;4.18;2.00;;;13.10;70.20;;;;;;4990811;28;20030;-74
2022/04/01 02:38:25;;;;;;;3.70;2.00;;;13.10;70.10;;;;;;5008305;28;20088;-75
2022/04/01 02:40:53;;;;;;;3.70;2.10;;;13.10;70.10;;;;;;4998984;28;20421;-73
2022/04/01 02:43:19;;;;;;;4.38;2.08;;;13.10;70.10;;;;;;4990596;28;20053;-77
2022/04/01 02:45:44;;;;;;;2.83;1.75;;;13.10;70.10;;;;;;4990879;28;20134;-77
2022/04/01 02:48:10;;;;;;;4.20;2.15;;;13.10;70.10;;;;;;4990504;28;20120;-75
2022/04/01 02:50:35;;;;;;;4.55;2.28;;;13.10;70.10;;;;;;5008630;28;20534;-75
2022/04/01 02:53:01;;;;;;;2.67;1.85;;;13.10;70.10;;;;;;4990813;28;20026;-76
2022/04/01 02:55:26;;;;;;;3.35;1.85;;;13.10;70.10;;;;;;5008160;28;20105;-77
2022/04/01 02:57:52;;;;;;;4.65;2.17;;;13.00;70.60;;;;;;5008589;28;20052;-75
2022/04/01 03:00:21;;;;;;;3.47;2.00;;;13.10;70.10;;;;;;5008190;28;20029;-75
2022/04/01 03:02:47;;;;;;;4.28;2.20;;;13.10;70.10;;;;;;5008668;28;20057;-77
2022/04/01 03:05:13;;;;;;;3.67;2.00;;;13.10;70.10;;;;;;5008303;28;20064;-75
2022/04/01 03:07:39;;;;;;;3.72;1.85;;;13.10;70.10;;;;;;5008142;28;20088;-74
2022/04/01 03:10:05;;;;;;;3.70;2.28;;;13.10;70.10;;;;;;5010468;28;20025;-77
2022/04/01 03:12:30;;;;;;;3.80;1.85;;;13.10;70.10;;;;;;5011920;28;20026;-76
2022/04/01 03:14:56;;;;;;;2.95;1.90;;;13.10;70.00;;;;;;5011523;28;20151;-75
2022/04/01 03:17:22;;;;;;;3.40;1.85;;;13.10;70.00;;;;;;5011249;28;20025;-77
2022/04/01 03:19:47;;;;;;;4.57;2.20;;;13.10;70.10;;;;;;4993796;28;20026;-74
2022/04/01 03:22:13;;;;;;;5.00;2.20;;;13.10;70.10;;;;;;5011490;28;20117;-76
2022/04/01 03:24:39;;;;;;;3.58;1.77;;;13.00;70.00;;;;;;5011352;28;20036;-75
2022/04/01 03:27:04;;;;;;;3.90;1.88;;;13.00;69.90;;;;;;4993497;28;20018;-77
2022/04/01 03:29:32;;;;;;;4.07;1.80;;;13.10;70.00;;;;;;5011361;28;20026;-75
2022/04/01 03:31:57;;;;;;;4.50;2.20;;;13.00;69.90;;;;;;4993778;28;20449;-75
2022/04/01 03:34:23;;;;;;;3.63;1.85;;;13.00;70.00;;;;;;5011171;28;20128;-74
2022/04/01 03:36:49;;;;;;;4.07;2.10;;;13.10;70.00;;;;;;5011060;28;20394;-76
2022/04/01 03:39:16;;;;;;;3.28;1.65;;;13.10;70.60;;;;;;5010932;28;20034;-75
2022/04/01 03:41:42;;;;;;;4.32;2.22;;;13.00;70.00;;;;;;4991758;28;20478;-76
2022/04/01 03:44:09;;;;;;;4.07;1.90;;;13.10;70.00;;;;;;4991714;28;20077;-76
2022/04/01 03:46:47;;;;;;;3.88;1.73;;;13.00;69.90;;;;;;4991194;28;20678;-75
2022/04/01 03:49:19;;;;;;;4.22;2.15;;;13.00;70.00;;;;;;4991528;28;20030;-75
2022/04/01 03:51:49;;;;;;;3.60;2.00;;;13.10;70.00;;;;;;4991713;28;20057;-75
2022/04/01 03:54:16;;;;;;;3.83;1.75;;;13.00;69.90;;;;;;4991236;28;20037;-75
2022/04/01 03:56:48;;;;;;;4.32;1.75;;;13.00;69.90;;;;;;5010367;28;20109;-74
2022/04/01 03:59:15;;;;;;;;;;;13.00;69.90;;;;;;5011062;28;20511;-75
2022/04/01 04:01:40;;;;;;;4.05;1.90;;;13.00;69.90;;;;;;5010973;28;19912;-75
2022/04/01 04:04:07;;;;;;;5.13;1.80;;;13.00;69.90;;;;;;4993056;28;20132;-76
2022/04/01 04:06:38;;;;;;;3.50;1.90;;;13.00;70.00;;;;;;5009897;28;20077;-74
2022/04/01 04:09:04;;;;;;;2.88;1.88;;;13.00;70.00;;;;;;5010562;28;20030;-75
2022/04/01 04:11:32;;;;;;;3.20;1.75;;;13.00;70.00;;;;;;5010318;28;20117;-74
2022/04/01 04:14:00;;;;;;;2.97;1.73;;;13.00;70.00;;;;;;5010263;28;20060;-75
2022/04/01 04:16:47;;;;;;;3.38;1.70;;;13.00;70.00;;;;;;5009881;28;20026;-76
2022/04/01 04:19:30;;;;;;;3.33;1.73;;;13.00;70.00;;;;;;5010333;28;20037;-75
2022/04/01 04:22:07;;;;;;;4.15;1.92;;;13.00;70.00;;;;;;5009845;28;20022;-75
2022/04/01 04:24:42;;;;;;;3.35;1.70;;;13.00;70.00;;;;;;5010426;28;20032;-78
2022/04/01 04:27:12;;;;;;;3.45;1.80;;;13.00;70.00;;;;;;5010065;28;20029;-76
2022/04/01 04:29:48;;;;;;;3.63;1.67;;;13.00;70.00;;;;;;5010280;28;20026;-79
2022/04/01 04:32:32;;;;;;;3.45;1.85;;;13.00;70.00;;;;;;5010329;28;20037;-76
2022/04/01 04:35:04;;;;;;;4.03;1.80;;;13.00;69.90;;;;;;4992526;28;20409;-76
2022/04/01 04:37:32;;;;;;;3.20;1.80;;;13.00;70.00;;;;;;4992136;28;20029;-74
2022/04/01 04:39:58;;;;;;;3.58;2.10;;;13.00;70.00;;;;;;5009847;28;20040;-77
2022/04/01 04:42:25;;;;;;;2.45;1.60;;;13.00;70.10;;;;;;4993725;28;20026;-74
2022/04/01 04:44:52;;;;;;;3.08;1.70;;;13.00;70.00;;;;;;5007368;28;20025;-77
2022/04/01 04:47:25;;;;;;;3.72;1.73;;;13.00;70.00;;;;;;4992068;28;20026;-74
2022/04/01 04:49:53;;;;;;;1.85;1.30;;;13.00;70.10;;;;;;5010077;28;20097;-75
2022/04/01 04:52:20;;;;;;;3.28;1.67;;;13.00;70.10;;;;;;5009928;28;20050;-76
2022/04/01 04:54:46;;;;;;;3.15;2.05;;;13.00;70.00;;;;;;5008203;28;20099;-79
2022/04/01 04:57:13;;;;;;;4.03;1.90;;;13.00;70.00;;;;;;5009347;28;20026;-75
2022/04/01 04:59:41;;;;;;;3.60;1.60;;;13.00;69.90;;;;;;4991583;28;20056;-76
2022/04/01 05:02:13;;;;;;;3.05;1.80;;;13.00;70.00;;;;;;5009920;28;20033;-77
2022/04/01 05:04:49;;;;;;;2.70;1.60;;;13.00;70.00;;;;;;4992105;28;20496;-75
2022/04/01 05:07:38;;;;;;;3.45;1.60;;;13.00;70.00;;;;;;4996354;28;20034;-75
2022/04/01 05:10:29;;;;;;;2.45;1.50;;;13.00;69.90;;;;;;5029326;28;20029;-75
2022/04/01 05:13:17;;;;;;;3.25;1.70;;;13.00;70.00;;;;;;5002124;28;20033;-75
2022/04/01 05:15:51;;;;;;;3.45;1.67;;;13.00;69.90;;;;;;5016415;28;20108;-74
2022/04/01 05:18:22;;;;;;;3.08;1.63;;;13.00;70.00;;;;;;5010845;28;20092;-75
2022/04/01 05:20:55;;;;;;;3.20;1.80;;;13.00;70.00;;;;;;5006752;28;20041;-76
2022/04/01 05:23:43;;;;;;;2.70;1.67;;;13.00;70.00;;;;;;5001058;28;20276;-75
2022/04/01 05:26:20;;;;;;;3.67;1.80;;;13.00;69.90;;;;;;5010443;28;20028;-76
2022/04/01 05:28:51;;;;;;;2.30;1.50;;;13.00;70.00;;;;;;5011043;28;20068;-75
2022/04/01 05:31:42;;;;;;;3.70;1.60;;;13.00;70.00;;;;;;4993284;28;20536;-78
2022/04/01 05:34:40;;;;;;;2.95;1.70;;;13.00;70.00;;;;;;5010012;28;20030;-75
2022/04/01 05:37:06;;;;;;;3.67;1.90;;;13.00;70.00;;;;;;4990189;28;20056;-75
2022/04/01 05:39:34;;;;;;;2.95;1.60;;;13.00;70.10;;;;;;5010400;28;20030;-75
2022/04/01 05:42:00;;;;;;;3.03;1.70;;;13.00;70.00;;;;;;5010212;28;20396;-75
2022/04/01 05:44:26;;;;;;;2.35;1.45;;;13.00;70.00;;;;;;5010761;28;20017;-75
2022/04/01 05:46:53;;;;;;;2.65;1.67;;;13.00;70.00;;;;;;5010250;28;20037;-76
2022/04/01 05:49:21;;;;;;;2.90;1.65;;;12.90;69.90;;;;;;5010520;28;20083;-74
2022/04/01 05:51:48;;;;;;;3.53;1.70;;;13.00;70.00;;;;;;5010404;28;20030;-74
2022/04/01 05:54:19;;;;;;;3.17;1.55;;;13.00;70.00;;;;;;4992928;28;20040;-77
2022/04/01 05:56:47;;;;;;;3.35;1.60;;;12.90;70.00;;;;;;4992455;28;20021;-75
2022/04/01 05:59:14;;;;;;;3.03;1.60;;;13.00;70.00;;;;;;4992105;28;20084;-75
2022/04/01 06:01:55;;;;;;;2.47;1.50;;;13.00;70.00;;;;;;4992582;28;20580;-74
2022/04/01 06:04:58;;;;;;;3.28;1.65;;;12.90;70.00;;;;;;5010163;28;20070;-75
2022/04/01 06:07:28;;;;;;;2.83;1.50;;;13.00;70.00;;;;;;4992427;28;20034;-74
2022/04/01 06:10:05;;;;;;;3.38;1.90;;;12.90;70.00;;;;;;5009988;28;20026;-74
2022/04/01 06:13:11;;;;;;;2.92;1.50;;;13.00;70.00;;;;;;4992813;28;20025;-75
2022/04/01 06:15:45;;;;;;;3.40;1.60;;;13.00;70.30;;;;;;5009959;28;20033;-76
2022/04/01 06:18:21;;;;;;;3.00;1.50;;;13.00;70.00;;;;;;5008897;28;20053;-76
2022/04/01 06:20:48;;;;;;;2.78;1.60;;;12.90;70.00;;;;;;5027769;28;20752;-75
2022/04/01 06:23:33;;;;;;;2.25;1.33;;;13.00;70.00;;;;;;5007172;28;20396;-74
2022/04/01 06:26:00;;;;;;;3.75;1.60;;;13.00;70.00;;;;;;5013895;28;20033;-76
2022/04/01 06:28:28;;;;;;;3.17;1.73;;;13.00;70.00;;;;;;5011981;28;20024;-77
2022/04/01 06:31:01;;;;;;;2.10;1.30;;;13.00;70.00;;;;;;5029942;28;20099;-77
2022/04/01 06:33:55;;;;;;;2.90;1.67;;;13.00;70.00;;;;;;5030262;28;20025;-75
2022/04/01 06:36:51;;;;;;;2.40;1.40;;;13.00;70.00;;;;;;5029472;28;20021;-80
2022/04/01 06:39:47;;;;;;;2.03;1.30;;;12.90;69.90;;;;;;5018001;28;20370;-76
2022/04/01 06:42:19;;;;;;;2.45;1.50;;;12.90;70.00;;;;;;5028576;28;20492;-75
2022/04/01 06:44:46;;;;;;;3.35;1.63;;;13.00;70.00;;;;;;5031728;28;20021;-76
2022/04/01 06:47:11;;;;;;;2.72;1.70;;;12.90;69.90;;;;;;5016145;28;20374;-75
2022/04/01 06:49:37;;;;;;;3.15;1.50;;;13.00;70.00;;;;;;5034081;28;20033;-75
2022/04/01 06:52:03;;;;;;;2.85;1.67;;;12.90;69.90;;;;;;5033299;28;20028;-76
2022/04/01 06:54:29;;;;;;;2.70;1.63;;;13.00;69.90;;;;;;5033786;28;20476;-77
2022/04/01 06:56:55;;;;;;;2.80;1.50;;;13.00;69.90;;;;;;5015314;28;20060;-77
2022/04/01 06:59:20;;;;;;;3.45;2.00;;;12.90;69.90;;;;;;5015612;28;20484;-75
2022/04/01 07:01:46;;;;;;;2.78;1.70;;;12.90;69.90;;;;;;5019658;28;20052;-76
2022/04/01 07:04:12;;;;;;;3.83;1.70;;;13.00;69.90;;;;;;4996130;28;20100;-75
2022/04/01 07:06:38;;;;;;;3.45;1.55;;;13.00;69.90;;;;;;5013097;28;20032;-76
2022/04/01 07:09:04;;;;;;;2.58;1.50;;;12.90;69.80;;;;;;5013178;28;20028;-75
2022/04/01 07:11:30;;;;;;;3.17;1.55;;;13.00;69.90;;;;;;5013509;28;20033;-77
2022/04/01 07:13:55;;;;;;;2.53;1.70;;;13.00;69.80;;;;;;5013176;28;20030;-75
2022/04/01 07:16:21;;;;;;;2.53;1.23;;;12.90;69.80;;;;;;5012941;28;20053;-78
2022/04/01 07:18:46;;;;;;;2.53;1.50;;;13.00;69.80;;;;;;5012870;28;20064;-74
2022/04/01 07:21:13;;;;;;;6.25;2.30;;;13.00;69.60;;;;;;4995506;28;20779;-76
2022/04/01 07:23:38;;;;;;;5.50;2.22;;;12.90;68.10;;;;;;5013284;28;20030;-73
2022/04/01 07:26:04;;;;;;;5.35;1.95;;;12.90;67.20;;;;;;4994917;28;20026;-79
2022/04/01 07:28:30;;;;;;;4.50;2.00;;;12.90;66.80;;;;;;4995401;28;20784;-75
2022/04/01 07:30:55;;;;;;;3.95;2.10;;;12.90;66.40;;;;;;5012834;28;20439;-75
2022/04/01 07:33:21;;;;;;;5.25;2.20;;;12.90;65.90;;;;;;5012607;28;20028;-74
2022/04/01 07:35:48;;;;;;;7.05;2.10;;;12.90;65.80;;;;;;4995177;28;20416;-77
2022/04/01 07:38:14;;;;;;;4.07;2.13;;;12.90;65.40;;;;;;5012710;28;20057;-76
2022/04/01 07:40:40;;;;;;;3.53;1.90;;;12.90;65.10;;;;;;5013141;28;20117;-76
2022/04/01 07:43:05;;;;;;;8.82;2.47;;;13.00;65.10;;;;;;5012622;28;20105;-76
2022/04/01 07:45:34;;;;;;;3.97;1.90;;;12.90;64.80;;;;;;4995237;28;20022;-76
2022/04/01 07:48:01;;;;;;;3.67;2.10;;;12.90;64.50;;;;;;4994964;28;20108;-75
2022/04/01 07:50:27;;;;;;;4.45;1.90;;;12.90;64.60;;;;;;5012393;28;20093;-75
2022/04/01 07:52:53;;;;;;;4.60;2.10;;;12.80;64.10;;;;;;5012798;28;20064;-76
2022/04/01 07:55:19;;;;;;;4.55;2.33;;;12.80;64.10;;;;;;4993932;28;20057;-76
2022/04/01 07:57:47;;;;;;;4.95;2.13;;;12.80;64.10;;;;;;4993987;28;20040;-74
2022/04/01 08:00:15;;;;;;;5.63;2.38;;;12.80;63.90;;;;;;5011027;28;20077;-75
2022/04/01 08:02:40;;;;;;;6.40;2.45;;;12.80;64.00;;;;;;4993061;28;20017;-74
2022/04/01 08:05:07;;;;;;;4.80;2.22;;;12.80;63.90;;;;;;4993272;28;20072;-75
2022/04/01 08:07:33;;;;;;;4.85;2.30;;;12.80;63.90;;;;;;5010227;28;20026;-79
2022/04/01 08:09:59;;;;;;;4.55;2.20;;;12.80;63.80;;;;;;5010822;28;20382;-74
2022/04/01 08:12:24;;;;;;;4.82;2.13;;;12.80;63.20;;;;;;5010757;28;20084;-75
2022/04/01 08:14:50;;;;;;;7.80;2.20;;;12.80;63.20;;;;;;5010610;28;20453;-75
2022/04/01 08:17:16;;;;;;;4.90;2.20;;;13.00;63.20;;;;;;4992648;28;20037;-74
2022/04/01 08:19:42;;;;;;;4.72;2.50;;;12.80;63.00;;;;;;4992761;28;20409;-75
2022/04/01 08:22:09;;;;;;;4.47;2.20;;;12.80;62.90;;;;;;5010661;28;20025;-79
2022/04/01 08:24:34;;;;;;;4.07;2.30;;;12.80;62.60;;;;;;5010421;28;20025;-75
2022/04/01 08:27:00;;;;;;;7.68;2.70;;;12.80;62.50;;;;;;5010172;28;20515;-76
2022/04/01 08:29:27;;;;;;;5.22;2.00;;;12.80;62.90;;;;;;5010479;28;20034;-75
2022/04/01 08:31:53;;;;;;;5.82;2.50;;;12.80;62.50;;;;;;4992849;28;20026;-75
2022/04/01 08:34:19;;;;;;;5.03;2.15;;;12.80;62.60;;;;;;4992925;28;20512;-74
2022/04/01 08:36:45;;;;;;;4.78;2.05;;;12.80;62.60;;;;;;4992335;28;20130;-74
2022/04/01 08:39:10;;;;;;;4.97;2.15;;;12.80;62.10;;;;;;4992765;28;20038;-75
2022/04/01 08:41:36;;;;;;;4.75;2.10;;;12.80;62.10;;;;;;5009993;28;20021;-79
2022/04/01 08:44:03;;;;;;;5.10;2.55;;;12.80;62.00;;;;;;5010119;28;20049;-74
2022/04/01 08:46:30;;;;;;;4.95;2.28;;;12.70;61.80;;;;;;5009617;28;20457;-74
2022/04/01 08:48:56;;;;;;;5.63;2.30;;;12.90;61.90;;;;;;4992502;28;20100;-74
2022/04/01 08:51:22;;;;;;;5.07;2.75;;;12.80;61.60;;;;;;5009984;28;20092;-77
2022/04/01 08:53:47;;;;;;;8.18;2.30;;;12.90;61.60;;;;;;5009940;28;20030;-75
2022/04/01 08:56:14;;;;;;;10.98;2.50;;;12.90;61.60;;;;;;4991895;28;20247;-74
2022/04/01 08:58:40;;;;;;;18.27;3.38;;;12.90;62.50;;;;;;4992231;28;20021;-74
2022/04/01 09:01:06;;;;;;;10.70;3.50;;;12.90;62.10;;;;;;5009468;28;20097;-76
2022/04/01 09:03:34;;;;;;;7.50;2.55;;;12.90;62.50;;;;;;5009971;28;20032;-74
2022/04/01 09:06:04;;;;;;;9.35;2.72;;;12.90;62.60;;;;;;5009562;28;20122;-81
2022/04/01 09:08:37;;;;;;;8.65;2.88;;;12.90;63.10;;;;;;5009113;28;20322;-78
2022/04/01 09:11:16;;;;;;;10.43;2.70;;;12.90;63.20;;;;;;4992322;28;20029;-77
2022/04/01 09:13:47;;;;;;;8.63;2.60;;;12.90;63.50;;;;;;4992199;28;20044;-77
2022/04/01 09:16:32;;;;;;;6.32;2.28;;;13.00;63.90;;;;;;4991895;28;20057;-82
2022/04/01 09:19:03;;;;;;;5.47;2.10;;;13.00;63.80;;;;;;5009792;28;20076;-76
2022/04/01 09:21:31;;;;;;;8.38;2.42;;;13.00;64.00;;;;;;4991981;28;20025;-78
2022/04/01 09:23:58;;;;;;;7.03;2.10;;;13.00;64.00;;;;;;5009628;28;20462;-76
2022/04/01 09:26:35;;;;;;;6.72;2.25;;;13.00;64.10;;;;;;5008889;28;20053;-77
2022/04/01 09:29:02;;;;;;;7.60;2.75;;;13.00;64.10;;;;;;4992069;28;20574;-76
2022/04/01 09:31:37;;;;;;;4.70;2.15;;;13.00;64.20;;;;;;4991722;28;20592;-76
2022/04/01 09:34:06;;;;;;;7.95;2.60;;;13.00;64.20;;;;;;5009535;28;20531;-77
2022/04/01 09:36:33;;;;;;;6.28;2.60;;;13.00;64.40;;;;;;5008944;28;20026;-77
2022/04/01 09:39:09;;;;;;;5.95;2.50;;;13.00;64.40;;;;;;4991568;28;20053;-79
2022/04/01 09:41:47;;;;;;;7.07;2.50;;;13.00;64.50;;;;;;5009237;28;20037;-80
2022/04/01 09:44:21;;;;;;;8.50;2.65;;;13.00;64.50;;;;;;5009380;28;20517;-76
2022/04/01 09:46:53;;;;;;;5.82;2.22;;;13.00;64.60;;;;;;5008900;28;20026;-76
2022/04/01 09:49:48;;;;;;;6.47;2.30;;;13.00;64.60;;;;;;5009183;28;20036;-79
2022/04/01 09:52:18;;;;;;;6.43;2.30;;;13.00;64.70;;;;;;4979132;28;20037;-77
2022/04/01 09:54:52;;;;;;;5.80;2.40;;;13.00;64.80;;;;;;5009122;28;20378;-78
2022/04/01 09:57:20;;;;;;;7.78;2.28;;;13.00;64.90;;;;;;5009534;28;20031;-77
2022/04/01 09:59:48;;;;;;;6.45;2.47;;;12.90;64.90;;;;;;5008977;28;20097;-80
2022/04/01 10:02:14;;;;;;;6.20;2.38;;;12.90;65.00;;;;;;5009066;28;20097;-78
2022/04/01 10:04:40;;;;;;;6.15;2.47;;;13.00;65.00;;;;;;4991305;28;20121;-77
2022/04/01 10:07:06;;;;;;;5.30;2.53;;;13.00;65.10;;;;;;4990856;28;20068;-77
2022/04/01 10:09:33;;;;;;;5.88;2.10;;;13.00;64.90;;;;;;4991406;28;20455;-80
2022/04/01 10:12:03;;;;;;;7.43;2.38;;;13.00;65.10;;;;;;4991398;28;20124;-77
2022/04/01 10:14:31;;;;;;;4.57;2.50;;;13.00;65.00;;;;;;4991289;28;20030;-77
2022/04/01 10:17:00;;;;;;;4.22;2.10;;;13.00;65.20;;;;;;4990920;28;20026;-77
2022/04/01 10:19:29;;;;;;;6.18;2.40;;;12.90;65.10;;;;;;5010158;28;20637;-82
2022/04/01 10:21:56;;;;;;;5.95;2.17;;;13.00;65.20;;;;;;5012728;28;20083;-80
2022/04/01 10:24:55;;;;;;;5.72;2.22;;;13.00;65.20;;;;;;4995275;28;20075;-77
2022/04/01 10:27:39;;;;;;;8.00;2.37;;;13.00;65.20;;;;;;5012244;28;20019;-76
2022/04/01 10:30:11;;;;;;;5.72;2.58;;;13.00;65.30;;;;;;4988123;28;20113;-78
2022/04/01 10:32:42;;;;;;;6.20;2.25;;;13.00;65.30;;;;;;4994656;28;20029;-78
2022/04/01 10:35:22;;;;;;;4.40;2.33;;;13.00;65.20;;;;;;5012421;28;20063;-77
2022/04/01 10:38:13;;;;;;;5.55;2.38;;;13.00;65.30;;;;;;5012109;28;20268;-79
2022/04/01 10:40:39;;;;;;;;;;;13.00;65.30;;;;;;5012519;28;20025;-80
2022/04/01 10:43:16;;;;;;;5.53;2.25;;;13.00;65.20;;;;;;5021188;28;20429;-76
2022/04/01 10:46:14;;;;;;;5.55;2.35;;;13.00;65.20;;;;;;4999261;28;20030;-75
2022/04/01 10:52:13;;;;;;;4.88;2.30;;;13.00;65.20;;;;;;4992335;28;20034;-77
2022/04/01 10:54:43;;;;;;;7.50;2.43;;;13.00;65.40;;;;;;4991627;28;20382;-76
2022/04/01 10:57:24;;;;;;;4.82;2.33;;;13.00;65.30;;;;;;4974243;28;20795;-77
2022/04/01 10:59:51;;;;;;;4.53;2.10;;;13.00;65.30;;;;;;4974188;28;20038;-77
2022/04/01 11:02:22;;;;;;;6.25;2.60;;;13.00;65.20;;;;;;5002872;28;20073;-83
2022/04/01 11:04:50;;;;;;;6.32;2.30;;;13.00;65.20;;;;;;4993949;28;20404;-77
2022/04/01 11:07:22;;;;;;;4.30;2.08;;;13.00;65.20;;;;;;4993833;28;20120;-76
2022/04/01 11:09:52;;;;;;;5.60;2.53;;;13.00;65.20;;;;;;4994541;28;20095;-78
2022/04/01 11:12:19;;;;;;;4.80;2.35;;;13.00;65.20;;;;;;4993771;28;20061;-76
2022/04/01 11:15:15;;;;;;;4.68;2.30;;;13.00;65.20;;;;;;4994075;28;20112;-77
2022/04/01 11:17:40;;;;;;;5.88;2.58;;;13.00;65.20;;;;;;5005836;28;20046;-74
2022/04/01 11:20:12;;;;;;;5.43;2.10;;;13.00;65.20;;;;;;4993712;28;20104;-76
2022/04/01 11:22:52;;;;;;;4.80;2.38;;;13.00;65.20;;;;;;4994056;28;20045;-76
2022/04/01 11:25:32;;;;;;;5.03;2.38;;;13.00;65.10;;;;;;5011571;28;20034;-76
2022/04/01 11:28:08;;;;;;;3.80;2.10;;;13.00;65.10;;;;;;4993578;28;20053;-76
2022/04/01 11:30:41;;;;;;;5.00;2.60;;;13.00;65.20;;;;;;5011138;28;20281;-78
2022/04/01 11:33:15;;;;;;;5.55;2.47;;;13.00;65.20;;;;;;5011306;28;20033;-77
2022/04/01 11:35:46;;;;;;;5.20;2.55;;;13.00;65.20;;;;;;5011312;28;20030;-77
2022/04/01 11:38:15;;;;;;;5.97;2.60;;;13.00;65.20;;;;;;5021123;28;20083;-76
2022/04/01 11:40:42;;;;;;;4.68;2.50;;;13.00;65.20;;;;;;5013027;28;20022;-77
2022/04/01 11:43:09;;;;;;;4.15;2.47;;;13.00;65.10;;;;;;5013036;28;20036;-80
2022/04/01 11:45:38;;;;;;;4.13;1.98;;;13.00;65.20;;;;;;5031027;28;20028;-76
2022/04/01 11:48:15;;;;;;;4.25;2.03;;;13.00;65.10;;;;;;5017531;28;20026;-76
2022/04/01 11:50:46;;;;;;;4.47;2.13;;;13.00;65.10;;;;;;4993395;28;20038;-75
2022/04/01 11:53:22;;;;;;;5.63;2.47;;;13.00;65.10;;;;;;5010871;28;20026;-76
2022/04/01 11:55:49;;;;;;;4.55;2.10;;;13.00;65.20;;;;;;5010874;28;20490;-75
2022/04/01 11:58:15;;;;;;;4.65;2.38;;;13.00;65.20;;;;;;4992395;28;20034;-76
2022/04/01 12:00:41;;;;;;;5.35;2.22;;;13.00;65.20;;;;;;5010710;28;20033;-76
2022/04/01 12:03:09;;;;;;;5.53;2.50;;;13.00;65.10;;;;;;5010646;28;20037;-76
2022/04/01 12:05:35;;;;;;;5.45;2.58;;;13.00;65.10;;;;;;5010755;28;20373;-77
2022/04/01 12:10:55;;;;;;;4.07;2.13;;;13.00;65.10;;;;;;5010762;28;20919;-74
2022/04/01 12:13:23;;;;;;;5.70;2.40;;;13.00;65.10;;;;;;4993167;28;20559;-76
2022/04/01 12:15:52;;;;;;;4.20;2.10;;;13.00;65.10;;;;;;5010836;28;20485;-76
2022/04/01 12:18:19;;;;;;;7.03;2.63;;;13.00;65.10;;;;;;4992672;28;20041;-76
2022/04/01 12:20:50;;;;;;;4.00;2.22;;;13.00;65.10;;;;;;5010340;28;20048;-77
2022/04/01 12:23:18;;;;;;;4.30;2.00;;;13.00;65.10;;;;;;4993091;28;20462;-76
2022/04/01 12:25:47;;;;;;;5.43;2.20;;;13.00;65.10;;;;;;5010520;28;20037;-75
2022/04/01 12:28:15;;;;;;;4.90;2.33;;;13.00;65.00;;;;;;5010279;28;20025;-76
2022/04/01 12:30:46;;;;;;;4.75;2.30;;;13.00;65.00;;;;;;5010375;28;20905;-74
2022/04/01 12:33:24;;;;;;;4.38;2.17;;;12.90;65.00;;;;;;4991084;28;20030;-78
2022/04/01 12:36:01;;;;;;;5.43;2.13;;;12.90;65.00;;;;;;5010704;28;20052;-77
2022/04/01 12:38:32;;;;;;;6.55;2.10;;;13.00;65.00;;;;;;5010712;28;20452;-77
2022/04/01 12:41:03;;;;;;;6.18;2.30;;;13.00;65.10;;;;;;5010515;28;20025;-75
2022/04/01 12:43:49;;;;;;;7.15;2.22;;;13.00;65.10;;;;;;5011245;28;20100;-76
2022/04/01 12:46:20;;;;;;;4.85;2.20;;;13.00;65.10;;;;;;5000520;28;20040;-76
2022/04/01 12:48:51;;;;;;;5.28;2.33;;;13.00;65.10;;;;;;5002056;28;20022;-76
2022/04/01 12:51:20;;;;;;;5.10;2.35;;;12.90;65.00;;;;;;5009397;28;20030;-76
2022/04/01 12:53:57;;;;;;;6.68;2.35;;;13.00;65.10;;;;;;4991700;28;20018;-76
2022/04/01 12:56:41;;;;;;;7.03;2.20;;;13.00;65.10;;;;;;4991716;28;20033;-77
2022/04/01 12:59:12;;;;;;;4.75;2.10;;;13.00;65.20;;;;;;5008687;28;20881;-76
2022/04/01 13:01:39;;;;;;;;;;;12.90;65.10;;;;;;4991933;28;20038;-75
2022/04/01 13:04:07;;;;;;;50.72;5.40;;;12.90;64.90;;;;;;4991100;28;19916;-74
2022/04/01 13:06:33;;;;;;;50.95;6.70;;;12.90;65.00;;;;;;5009198;28;20510;-76
2022/04/01 13:09:09;;;;;;;70.32;7.10;;;12.90;65.00;;;;;;4989868;28;20033;-76
2022/04/01 13:11:38;;;;;;;47.10;5.57;;;12.90;65.10;;;;;;4989274;28;20034;-76
2022/04/01 13:14:05;;;;;;;46.13;6.43;;;12.90;65.10;;;;;;4988208;28;20018;-77